sensor_id;sensor_type;location;lat;lon;timestamp;temperature;humidity
21092;DHT22;10704;42.678;23.288;2023-03-11T00:01:36;9.60;99.90
21092;DHT22;10704;42.678;23.288;2023-03-11T00:04:06;9.60;99.90
21092;DHT22;10704;42.678;23.288;2023-03-11T00:06:34;9.40;99.90
21092;DHT22;10704;42.678;23.288;2023-03-11T00:09:00;9.30;99.90
21092;DHT22;10704;42.678;23.288;2023-03-11T00:11:26;9.20;99.90
21092;DHT22;10704;42.678;23.288;2023-03-11T00:13:52;9.10;99.90
21092;DHT22;10704;42.678;23.288;2023-03-11T00:16:17;9.00;99.90
21092;DHT22;10704;42.678;23.288;2023-03-11T00:18:43;8.90;99.90
21092;DHT22;10704;42.678;23.288;2023-03-11T00:21:18;8.90;99.90
21092;DHT22;10704;42.678;23.288;2023-03-11T00:23:45;8.90;99.90
21092;DHT22;10704;42.678;23.288;2023-03-11T00:26:11;8.80;99.90
21092;DHT22;10704;42.678;23.288;2023-03-11T00:28:37;8.80;99.90
21092;DHT22;10704;42.678;23.288;2023-03-11T00:31:03;8.80;99.90
21092;DHT22;10704;42.678;23.288;2023-03-11T00:33:30;8.80;99.90
21092;DHT22;10704;42.678;23.288;2023-03-11T00:35:56;8.70;99.90
21092;DHT22;10704;42.678;23.288;2023-03-11T00:38:22;8.70;99.90
21092;DHT22;10704;42.678;23.288;2023-03-11T00:40:48;8.60;99.90
21092;DHT22;10704;42.678;23.288;2023-03-11T00:43:15;8.60;99.90
21092;DHT22;10704;42.678;23.288;2023-03-11T00:45:41;8.60;99.90
21092;DHT22;10704;42.678;23.288;2023-03-11T00:48:07;8.70;99.90
21092;DHT22;10704;42.678;23.288;2023-03-11T00:50:35;8.60;99.90
21092;DHT22;10704;42.678;23.288;2023-03-11T00:53:03;8.60;99.90
21092;DHT22;10704;42.678;23.288;2023-03-11T00:55:31;8.70;99.90
21092;DHT22;10704;42.678;23.288;2023-03-11T00:58:03;8.60;99.90
21092;DHT22;10704;42.678;23.288;2023-03-11T01:00:37;8.70;99.90
21092;DHT22;10704;42.678;23.288;2023-03-11T01:03:03;8.70;99.90
21092;DHT22;10704;42.678;23.288;2023-03-11T01:05:31;8.70;99.90
21092;DHT22;10704;42.678;23.288;2023-03-11T01:07:57;8.70;99.90
21092;DHT22;10704;42.678;23.288;2023-03-11T01:10:26;8.80;99.90
21092;DHT22;10704;42.678;23.288;2023-03-11T01:12:53;8.80;99.90
21092;DHT22;10704;42.678;23.288;2023-03-11T01:15:26;8.80;99.90
21092;DHT22;10704;42.678;23.288;2023-03-11T01:17:53;8.80;99.90
21092;DHT22;10704;42.678;23.288;2023-03-11T01:20:21;8.80;99.90
21092;DHT22;10704;42.678;23.288;2023-03-11T01:22:47;8.90;99.90
21092;DHT22;10704;42.678;23.288;2023-03-11T01:25:15;8.80;99.90
21092;DHT22;10704;42.678;23.288;2023-03-11T01:27:41;8.90;99.90
21092;DHT22;10704;42.678;23.288;2023-03-11T01:30:11;8.80;99.90
21092;DHT22;10704;42.678;23.288;2023-03-11T01:32:37;8.80;99.90
21092;DHT22;10704;42.678;23.288;2023-03-11T01:35:03;8.80;99.90
21092;DHT22;10704;42.678;23.288;2023-03-11T01:37:29;8.80;99.90
21092;DHT22;10704;42.678;23.288;2023-03-11T01:39:55;8.90;99.90
21092;DHT22;10704;42.678;23.288;2023-03-11T01:42:21;8.90;99.90
21092;DHT22;10704;42.678;23.288;2023-03-11T01:44:47;8.90;99.90
21092;DHT22;10704;42.678;23.288;2023-03-11T01:49:39;8.80;99.90
21092;DHT22;10704;42.678;23.288;2023-03-11T01:52:07;8.90;99.90
21092;DHT22;10704;42.678;23.288;2023-03-11T01:54:39;8.80;99.90
21092;DHT22;10704;42.678;23.288;2023-03-11T01:57:09;8.70;99.90
21092;DHT22;10704;42.678;23.288;2023-03-11T01:59:42;8.80;99.90
21092;DHT22;10704;42.678;23.288;2023-03-11T02:02:18;8.80;99.90
21092;DHT22;10704;42.678;23.288;2023-03-11T02:04:46;8.90;99.90
21092;DHT22;10704;42.678;23.288;2023-03-11T02:07:14;9.00;99.90
21092;DHT22;10704;42.678;23.288;2023-03-11T02:09:41;9.10;99.90
21092;DHT22;10704;42.678;23.288;2023-03-11T02:12:09;9.10;99.90
21092;DHT22;10704;42.678;23.288;2023-03-11T02:14:38;9.10;99.90
21092;DHT22;10704;42.678;23.288;2023-03-11T02:17:06;9.00;99.90
21092;DHT22;10704;42.678;23.288;2023-03-11T02:22:41;9.10;99.90
21092;DHT22;10704;42.678;23.288;2023-03-11T02:27:47;9.10;99.90
21092;DHT22;10704;42.678;23.288;2023-03-11T02:30:14;9.10;99.90
21092;DHT22;10704;42.678;23.288;2023-03-11T02:32:43;9.10;99.90
21092;DHT22;10704;42.678;23.288;2023-03-11T02:35:09;9.10;99.90
21092;DHT22;10704;42.678;23.288;2023-03-11T02:37:35;9.30;99.90
21092;DHT22;10704;42.678;23.288;2023-03-11T02:40:38;9.60;99.90
21092;DHT22;10704;42.678;23.288;2023-03-11T02:43:12;10.00;99.90
21092;DHT22;10704;42.678;23.288;2023-03-11T02:45:40;10.40;99.90
21092;DHT22;10704;42.678;23.288;2023-03-11T02:48:09;10.40;99.90
21092;DHT22;10704;42.678;23.288;2023-03-11T02:50:37;10.50;99.90
21092;DHT22;10704;42.678;23.288;2023-03-11T02:53:05;10.40;99.90
21092;DHT22;10704;42.678;23.288;2023-03-11T02:55:31;10.20;99.90
21092;DHT22;10704;42.678;23.288;2023-03-11T02:57:59;10.20;99.90
21092;DHT22;10704;42.678;23.288;2023-03-11T03:00:25;10.20;99.90
21092;DHT22;10704;42.678;23.288;2023-03-11T03:02:56;10.10;99.90
21092;DHT22;10704;42.678;23.288;2023-03-11T03:05:24;10.20;99.90
21092;DHT22;10704;42.678;23.288;2023-03-11T03:08:08;10.20;99.90
21092;DHT22;10704;42.678;23.288;2023-03-11T03:10:35;10.30;99.90
21092;DHT22;10704;42.678;23.288;2023-03-11T03:13:01;10.30;99.90
21092;DHT22;10704;42.678;23.288;2023-03-11T03:15:27;10.40;99.90
21092;DHT22;10704;42.678;23.288;2023-03-11T03:17:53;10.40;99.90
21092;DHT22;10704;42.678;23.288;2023-03-11T03:20:20;10.40;99.90
21092;DHT22;10704;42.678;23.288;2023-03-11T03:22:49;10.40;99.90
21092;DHT22;10704;42.678;23.288;2023-03-11T03:25:18;10.50;99.90
21092;DHT22;10704;42.678;23.288;2023-03-11T03:27:44;10.50;99.90
21092;DHT22;10704;42.678;23.288;2023-03-11T03:30:10;10.50;99.90
21092;DHT22;10704;42.678;23.288;2023-03-11T03:32:37;10.60;99.90
21092;DHT22;10704;42.678;23.288;2023-03-11T03:35:06;10.60;99.90
21092;DHT22;10704;42.678;23.288;2023-03-11T03:37:52;10.50;99.90
21092;DHT22;10704;42.678;23.288;2023-03-11T03:40:20;10.70;99.90
21092;DHT22;10704;42.678;23.288;2023-03-11T03:42:46;10.90;99.90
21092;DHT22;10704;42.678;23.288;2023-03-11T03:45:12;11.00;99.90
21092;DHT22;10704;42.678;23.288;2023-03-11T03:47:38;10.90;99.90
21092;DHT22;10704;42.678;23.288;2023-03-11T03:50:06;10.90;99.90
21092;DHT22;10704;42.678;23.288;2023-03-11T03:52:37;10.90;99.90
21092;DHT22;10704;42.678;23.288;2023-03-11T03:55:04;11.00;99.90
21092;DHT22;10704;42.678;23.288;2023-03-11T03:57:31;11.00;99.90
21092;DHT22;10704;42.678;23.288;2023-03-11T03:59:57;11.00;99.90
21092;DHT22;10704;42.678;23.288;2023-03-11T04:02:23;11.00;99.90
21092;DHT22;10704;42.678;23.288;2023-03-11T04:04:49;11.00;99.90
21092;DHT22;10704;42.678;23.288;2023-03-11T04:07:15;10.90;99.90
21092;DHT22;10704;42.678;23.288;2023-03-11T04:09:42;10.90;99.90
21092;DHT22;10704;42.678;23.288;2023-03-11T04:12:14;10.90;99.90
21092;DHT22;10704;42.678;23.288;2023-03-11T04:14:40;10.90;99.90
21092;DHT22;10704;42.678;23.288;2023-03-11T04:17:07;10.90;99.90
21092;DHT22;10704;42.678;23.288;2023-03-11T04:19:33;10.90;99.90
21092;DHT22;10704;42.678;23.288;2023-03-11T04:21:59;10.90;99.90
21092;DHT22;10704;42.678;23.288;2023-03-11T04:24:25;10.90;99.90
21092;DHT22;10704;42.678;23.288;2023-03-11T04:26:52;10.80;99.90
21092;DHT22;10704;42.678;23.288;2023-03-11T04:29:19;10.80;99.90
21092;DHT22;10704;42.678;23.288;2023-03-11T04:31:48;10.70;99.90
21092;DHT22;10704;42.678;23.288;2023-03-11T04:34:15;10.70;99.90
21092;DHT22;10704;42.678;23.288;2023-03-11T04:36:41;10.70;99.90
21092;DHT22;10704;42.678;23.288;2023-03-11T04:39:08;10.70;99.90
21092;DHT22;10704;42.678;23.288;2023-03-11T04:41:40;10.70;99.90
21092;DHT22;10704;42.678;23.288;2023-03-11T04:44:07;10.70;99.90
21092;DHT22;10704;42.678;23.288;2023-03-11T04:46:33;10.70;99.90
21092;DHT22;10704;42.678;23.288;2023-03-11T04:49:00;10.70;99.90
21092;DHT22;10704;42.678;23.288;2023-03-11T04:51:26;10.70;99.90
21092;DHT22;10704;42.678;23.288;2023-03-11T04:53:52;10.70;99.90
21092;DHT22;10704;42.678;23.288;2023-03-11T04:56:18;10.70;99.90
21092;DHT22;10704;42.678;23.288;2023-03-11T04:58:44;10.80;99.90
21092;DHT22;10704;42.678;23.288;2023-03-11T05:01:10;10.80;99.90
21092;DHT22;10704;42.678;23.288;2023-03-11T05:03:36;10.80;99.90
21092;DHT22;10704;42.678;23.288;2023-03-11T05:06:02;10.80;99.90
21092;DHT22;10704;42.678;23.288;2023-03-11T05:08:29;10.80;99.90
21092;DHT22;10704;42.678;23.288;2023-03-11T05:10:55;10.80;99.90
21092;DHT22;10704;42.678;23.288;2023-03-11T05:13:21;10.80;99.90
21092;DHT22;10704;42.678;23.288;2023-03-11T05:15:49;10.80;99.90
21092;DHT22;10704;42.678;23.288;2023-03-11T05:18:16;10.80;99.90
21092;DHT22;10704;42.678;23.288;2023-03-11T05:20:42;10.80;99.90
21092;DHT22;10704;42.678;23.288;2023-03-11T05:23:10;10.80;99.90
21092;DHT22;10704;42.678;23.288;2023-03-11T05:25:36;10.80;99.90
21092;DHT22;10704;42.678;23.288;2023-03-11T05:28:03;10.90;99.90
21092;DHT22;10704;42.678;23.288;2023-03-11T05:30:31;10.80;99.90
21092;DHT22;10704;42.678;23.288;2023-03-11T05:32:57;10.80;99.90
21092;DHT22;10704;42.678;23.288;2023-03-11T05:35:24;10.90;99.90
21092;DHT22;10704;42.678;23.288;2023-03-11T05:37:49;10.90;99.90
21092;DHT22;10704;42.678;23.288;2023-03-11T05:40:18;10.90;99.90
21092;DHT22;10704;42.678;23.288;2023-03-11T05:42:44;10.80;99.90
21092;DHT22;10704;42.678;23.288;2023-03-11T05:45:12;10.80;99.90
21092;DHT22;10704;42.678;23.288;2023-03-11T05:47:40;10.70;99.90
21092;DHT22;10704;42.678;23.288;2023-03-11T05:50:10;10.70;99.90
21092;DHT22;10704;42.678;23.288;2023-03-11T05:52:38;10.70;99.90
21092;DHT22;10704;42.678;23.288;2023-03-11T05:55:04;10.70;99.90
21092;DHT22;10704;42.678;23.288;2023-03-11T05:57:31;10.70;99.90
21092;DHT22;10704;42.678;23.288;2023-03-11T05:59:57;10.70;99.90
21092;DHT22;10704;42.678;23.288;2023-03-11T06:02:23;10.70;99.90
21092;DHT22;10704;42.678;23.288;2023-03-11T06:04:49;10.50;99.90
21092;DHT22;10704;42.678;23.288;2023-03-11T06:07:16;10.60;99.90
21092;DHT22;10704;42.678;23.288;2023-03-11T06:09:45;10.50;99.90
21092;DHT22;10704;42.678;23.288;2023-03-11T06:12:15;10.50;99.90
21092;DHT22;10704;42.678;23.288;2023-03-11T06:15:00;10.40;99.90
21092;DHT22;10704;42.678;23.288;2023-03-11T06:17:26;10.40;99.90
21092;DHT22;10704;42.678;23.288;2023-03-11T06:19:52;10.20;99.90
21092;DHT22;10704;42.678;23.288;2023-03-11T06:22:19;10.20;99.90
21092;DHT22;10704;42.678;23.288;2023-03-11T06:24:45;10.10;99.90
21092;DHT22;10704;42.678;23.288;2023-03-11T06:27:11;10.10;99.90
21092;DHT22;10704;42.678;23.288;2023-03-11T06:29:39;10.10;99.90
21092;DHT22;10704;42.678;23.288;2023-03-11T06:32:05;10.10;99.90
21092;DHT22;10704;42.678;23.288;2023-03-11T06:34:31;10.10;99.90
21092;DHT22;10704;42.678;23.288;2023-03-11T06:36:57;10.10;99.90
21092;DHT22;10704;42.678;23.288;2023-03-11T06:39:24;10.10;99.90
21092;DHT22;10704;42.678;23.288;2023-03-11T06:41:51;10.20;99.90
21092;DHT22;10704;42.678;23.288;2023-03-11T06:44:17;10.20;99.90
21092;DHT22;10704;42.678;23.288;2023-03-11T06:46:43;10.20;99.90
21092;DHT22;10704;42.678;23.288;2023-03-11T06:49:10;10.20;99.90
21092;DHT22;10704;42.678;23.288;2023-03-11T06:51:38;10.30;99.90
21092;DHT22;10704;42.678;23.288;2023-03-11T06:54:05;10.40;99.90
21092;DHT22;10704;42.678;23.288;2023-03-11T06:56:32;10.30;99.90
21092;DHT22;10704;42.678;23.288;2023-03-11T06:59:03;10.30;99.90
21092;DHT22;10704;42.678;23.288;2023-03-11T07:01:31;10.20;99.90
21092;DHT22;10704;42.678;23.288;2023-03-11T07:03:59;10.20;99.90
21092;DHT22;10704;42.678;23.288;2023-03-11T07:06:27;10.30;99.90
21092;DHT22;10704;42.678;23.288;2023-03-11T07:09:00;10.30;99.90
21092;DHT22;10704;42.678;23.288;2023-03-11T07:11:27;10.20;99.90
21092;DHT22;10704;42.678;23.288;2023-03-11T07:14:00;10.20;99.90
21092;DHT22;10704;42.678;23.288;2023-03-11T07:16:30;10.30;99.90
21092;DHT22;10704;42.678;23.288;2023-03-11T07:19:03;10.30;99.90
21092;DHT22;10704;42.678;23.288;2023-03-11T07:21:30;10.30;99.90
21092;DHT22;10704;42.678;23.288;2023-03-11T07:23:59;10.40;99.90
21092;DHT22;10704;42.678;23.288;2023-03-11T07:26:26;10.40;99.90
21092;DHT22;10704;42.678;23.288;2023-03-11T07:28:53;10.60;99.90
21092;DHT22;10704;42.678;23.288;2023-03-11T07:31:22;10.80;99.90
21092;DHT22;10704;42.678;23.288;2023-03-11T07:33:49;10.90;99.90
21092;DHT22;10704;42.678;23.288;2023-03-11T07:36:18;11.10;99.90
21092;DHT22;10704;42.678;23.288;2023-03-11T07:38:44;11.30;99.90
21092;DHT22;10704;42.678;23.288;2023-03-11T07:41:11;11.60;99.90
21092;DHT22;10704;42.678;23.288;2023-03-11T07:43:39;11.80;99.90
21092;DHT22;10704;42.678;23.288;2023-03-11T07:46:12;12.10;99.90
21092;DHT22;10704;42.678;23.288;2023-03-11T07:48:40;12.20;99.90
21092;DHT22;10704;42.678;23.288;2023-03-11T07:51:11;12.10;99.90
21092;DHT22;10704;42.678;23.288;2023-03-11T07:53:38;12.10;99.90
21092;DHT22;10704;42.678;23.288;2023-03-11T07:56:08;12.30;99.90
21092;DHT22;10704;42.678;23.288;2023-03-11T07:58:34;12.50;99.90
21092;DHT22;10704;42.678;23.288;2023-03-11T08:01:11;12.40;99.90
21092;DHT22;10704;42.678;23.288;2023-03-11T08:03:37;12.70;99.90
21092;DHT22;10704;42.678;23.288;2023-03-11T08:06:14;13.40;99.90
21092;DHT22;10704;42.678;23.288;2023-03-11T08:08:41;13.90;99.90
21092;DHT22;10704;42.678;23.288;2023-03-11T08:11:07;14.10;99.90
21092;DHT22;10704;42.678;23.288;2023-03-11T08:13:33;13.80;99.90
21092;DHT22;10704;42.678;23.288;2023-03-11T08:16:03;13.60;99.90
21092;DHT22;10704;42.678;23.288;2023-03-11T08:18:29;13.70;99.90
21092;DHT22;10704;42.678;23.288;2023-03-11T08:20:56;13.80;99.90
21092;DHT22;10704;42.678;23.288;2023-03-11T08:23:22;14.20;99.90
21092;DHT22;10704;42.678;23.288;2023-03-11T08:25:49;14.30;99.90
21092;DHT22;10704;42.678;23.288;2023-03-11T08:28:15;14.70;99.90
21092;DHT22;10704;42.678;23.288;2023-03-11T08:30:41;15.00;99.90
21092;DHT22;10704;42.678;23.288;2023-03-11T08:33:07;15.00;99.90
21092;DHT22;10704;42.678;23.288;2023-03-11T08:35:33;14.70;99.90
21092;DHT22;10704;42.678;23.288;2023-03-11T08:37:59;14.90;99.90
21092;DHT22;10704;42.678;23.288;2023-03-11T08:40:25;15.30;99.90
21092;DHT22;10704;42.678;23.288;2023-03-11T08:42:51;15.70;99.90
21092;DHT22;10704;42.678;23.288;2023-03-11T08:45:16;15.40;99.90
21092;DHT22;10704;42.678;23.288;2023-03-11T08:47:42;15.50;99.10
21092;DHT22;10704;42.678;23.288;2023-03-11T08:50:13;15.70;99.70
21092;DHT22;10704;42.678;23.288;2023-03-11T08:52:39;15.80;98.70
21092;DHT22;10704;42.678;23.288;2023-03-11T08:55:05;16.60;98.40
21092;DHT22;10704;42.678;23.288;2023-03-11T08:57:33;17.10;95.10
21092;DHT22;10704;42.678;23.288;2023-03-11T08:59:59;17.30;94.00
21092;DHT22;10704;42.678;23.288;2023-03-11T09:02:26;16.60;94.00
21092;DHT22;10704;42.678;23.288;2023-03-11T09:04:52;16.20;92.70
21092;DHT22;10704;42.678;23.288;2023-03-11T09:07:18;15.60;94.40
21092;DHT22;10704;42.678;23.288;2023-03-11T09:09:44;15.40;95.10
21092;DHT22;10704;42.678;23.288;2023-03-11T09:12:10;15.60;95.20
21092;DHT22;10704;42.678;23.288;2023-03-11T09:14:42;16.50;94.00
21092;DHT22;10704;42.678;23.288;2023-03-11T09:17:09;15.70;94.80
21092;DHT22;10704;42.678;23.288;2023-03-11T09:19:37;15.70;96.20
21092;DHT22;10704;42.678;23.288;2023-03-11T09:22:03;15.50;95.90
21092;DHT22;10704;42.678;23.288;2023-03-11T09:24:32;15.10;97.30
21092;DHT22;10704;42.678;23.288;2023-03-11T09:27:00;15.70;97.40
21092;DHT22;10704;42.678;23.288;2023-03-11T09:29:26;16.90;96.20
21092;DHT22;10704;42.678;23.288;2023-03-11T09:31:52;18.30;92.60
21092;DHT22;10704;42.678;23.288;2023-03-11T09:34:18;18.40;91.30
21092;DHT22;10704;42.678;23.288;2023-03-11T09:36:45;17.70;92.00
21092;DHT22;10704;42.678;23.288;2023-03-11T09:39:11;17.40;92.20
21092;DHT22;10704;42.678;23.288;2023-03-11T09:52:31;18.00;88.10
21092;DHT22;10704;42.678;23.288;2023-03-11T09:54:59;18.00;85.60
21092;DHT22;10704;42.678;23.288;2023-03-11T09:57:32;18.50;84.00
21092;DHT22;10704;42.678;23.288;2023-03-11T10:00:01;17.70;81.80
21092;DHT22;10704;42.678;23.288;2023-03-11T10:02:38;17.30;83.30
21092;DHT22;10704;42.678;23.288;2023-03-11T10:05:26;17.80;82.90
21092;DHT22;10704;42.678;23.288;2023-03-11T10:08:02;18.80;78.80
21092;DHT22;10704;42.678;23.288;2023-03-11T10:10:32;19.30;75.00
21092;DHT22;10704;42.678;23.288;2023-03-11T10:13:14;17.70;74.90
21092;DHT22;10704;42.678;23.288;2023-03-11T10:16:14;16.30;79.90
21092;DHT22;10704;42.678;23.288;2023-03-11T10:24:01;16.00;84.70
21092;DHT22;10704;42.678;23.288;2023-03-11T10:26:35;16.00;85.30
21092;DHT22;10704;42.678;23.288;2023-03-11T10:31:39;15.60;88.30
21092;DHT22;10704;42.678;23.288;2023-03-11T10:34:27;15.70;88.60
21092;DHT22;10704;42.678;23.288;2023-03-11T10:39:30;15.70;83.90
21092;DHT22;10704;42.678;23.288;2023-03-11T10:42:02;15.00;86.10
21092;DHT22;10704;42.678;23.288;2023-03-11T10:44:40;14.70;90.70
21092;DHT22;10704;42.678;23.288;2023-03-11T10:47:17;14.30;95.70
21092;DHT22;10704;42.678;23.288;2023-03-11T10:49:43;14.00;96.60
21092;DHT22;10704;42.678;23.288;2023-03-11T10:52:09;13.80;99.90
21092;DHT22;10704;42.678;23.288;2023-03-11T10:54:38;13.80;99.90
21092;DHT22;10704;42.678;23.288;2023-03-11T10:59:50;13.80;99.90
21092;DHT22;10704;42.678;23.288;2023-03-11T11:02:38;13.90;99.90
21092;DHT22;10704;42.678;23.288;2023-03-11T11:07:44;14.60;99.90
21092;DHT22;10704;42.678;23.288;2023-03-11T11:10:25;15.10;99.90
21092;DHT22;10704;42.678;23.288;2023-03-11T11:15:41;17.50;93.70
21092;DHT22;10704;42.678;23.288;2023-03-11T11:18:26;19.10;90.50
21092;DHT22;10704;42.678;23.288;2023-03-11T11:20:57;18.90;87.40
21092;DHT22;10704;42.678;23.288;2023-03-11T11:23:47;17.60;87.80
21092;DHT22;10704;42.678;23.288;2023-03-11T11:26:18;16.00;90.40
21092;DHT22;10704;42.678;23.288;2023-03-11T11:28:45;15.30;91.80
21092;DHT22;10704;42.678;23.288;2023-03-11T11:31:23;14.70;94.40
21092;DHT22;10704;42.678;23.288;2023-03-11T11:33:54;14.50;97.80
21092;DHT22;10704;42.678;23.288;2023-03-11T11:36:24;14.60;99.90
21092;DHT22;10704;42.678;23.288;2023-03-11T11:38:52;14.80;99.90
21092;DHT22;10704;42.678;23.288;2023-03-11T11:41:26;14.70;99.60
21092;DHT22;10704;42.678;23.288;2023-03-11T11:43:57;14.40;99.10
21092;DHT22;10704;42.678;23.288;2023-03-11T11:46:33;14.40;99.90
21092;DHT22;10704;42.678;23.288;2023-03-11T11:49:15;14.80;99.90
21092;DHT22;10704;42.678;23.288;2023-03-11T11:54:29;17.80;93.60
21092;DHT22;10704;42.678;23.288;2023-03-11T11:57:00;18.50;88.00
21092;DHT22;10704;42.678;23.288;2023-03-11T11:59:35;18.30;84.50
21092;DHT22;10704;42.678;23.288;2023-03-11T12:05:24;16.50;81.40
21092;DHT22;10704;42.678;23.288;2023-03-11T12:11:21;16.10;82.40
21092;DHT22;10704;42.678;23.288;2023-03-11T12:27:02;16.80;77.70
21092;DHT22;10704;42.678;23.288;2023-03-11T12:29:40;17.50;78.50
21092;DHT22;10704;42.678;23.288;2023-03-11T12:32:50;17.60;76.20
21092;DHT22;10704;42.678;23.288;2023-03-11T12:35:28;17.20;77.90
21092;DHT22;10704;42.678;23.288;2023-03-11T12:38:15;16.20;81.50
21092;DHT22;10704;42.678;23.288;2023-03-11T12:45:50;14.90;89.70
21092;DHT22;10704;42.678;23.288;2023-03-11T12:50:55;14.50;92.40
21092;DHT22;10704;42.678;23.288;2023-03-11T12:56:43;14.20;94.40
21092;DHT22;10704;42.678;23.288;2023-03-11T13:05:59;14.10;97.30
21092;DHT22;10704;42.678;23.288;2023-03-11T13:08:42;13.90;98.10
21092;DHT22;10704;42.678;23.288;2023-03-11T13:14:33;13.70;99.70
21092;DHT22;10704;42.678;23.288;2023-03-11T13:17:24;13.50;99.90
21092;DHT22;10704;42.678;23.288;2023-03-11T13:19:53;13.40;99.90
21092;DHT22;10704;42.678;23.288;2023-03-11T13:22:39;13.30;99.90
21092;DHT22;10704;42.678;23.288;2023-03-11T13:30:55;13.30;99.90
21092;DHT22;10704;42.678;23.288;2023-03-11T13:33:53;12.60;99.90
21092;DHT22;10704;42.678;23.288;2023-03-11T13:36:37;12.20;99.90
21092;DHT22;10704;42.678;23.288;2023-03-11T13:41:52;11.30;99.90
21092;DHT22;10704;42.678;23.288;2023-03-11T13:46:46;10.60;99.90
21092;DHT22;10704;42.678;23.288;2023-03-11T13:49:41;10.50;99.90
21092;DHT22;10704;42.678;23.288;2023-03-11T13:52:38;10.50;99.90
21092;DHT22;10704;42.678;23.288;2023-03-11T13:55:30;10.40;99.90
21092;DHT22;10704;42.678;23.288;2023-03-11T13:57:57;10.30;99.90
21092;DHT22;10704;42.678;23.288;2023-03-11T14:00:26;10.30;99.90
21092;DHT22;10704;42.678;23.288;2023-03-11T14:07:52;10.40;99.90
21092;DHT22;10704;42.678;23.288;2023-03-11T14:12:47;10.40;99.90
21092;DHT22;10704;42.678;23.288;2023-03-11T14:17:46;10.50;99.90
21092;DHT22;10704;42.678;23.288;2023-03-11T14:20:17;10.50;99.90
21092;DHT22;10704;42.678;23.288;2023-03-11T14:22:46;10.60;99.90
21092;DHT22;10704;42.678;23.288;2023-03-11T14:25:21;10.70;99.90
21092;DHT22;10704;42.678;23.288;2023-03-11T14:27:57;10.60;99.90
21092;DHT22;10704;42.678;23.288;2023-03-11T14:30:28;10.60;99.90
21092;DHT22;10704;42.678;23.288;2023-03-11T14:33:02;10.90;99.90
21092;DHT22;10704;42.678;23.288;2023-03-11T14:35:31;11.20;99.90
21092;DHT22;10704;42.678;23.288;2023-03-11T14:37:58;11.40;99.90
21092;DHT22;10704;42.678;23.288;2023-03-11T14:40:28;11.80;99.90
21092;DHT22;10704;42.678;23.288;2023-03-11T14:43:00;11.80;99.90
21092;DHT22;10704;42.678;23.288;2023-03-11T14:45:32;11.60;99.90
21092;DHT22;10704;42.678;23.288;2023-03-11T14:48:05;11.10;99.90
21092;DHT22;10704;42.678;23.288;2023-03-11T14:50:34;11.00;99.90
21092;DHT22;10704;42.678;23.288;2023-03-11T14:55:49;10.70;99.90
21092;DHT22;10704;42.678;23.288;2023-03-11T15:01:04;10.50;99.90
21092;DHT22;10704;42.678;23.288;2023-03-11T15:04:12;10.00;99.90
21092;DHT22;10704;42.678;23.288;2023-03-11T15:06:42;9.80;99.90
21092;DHT22;10704;42.678;23.288;2023-03-11T15:09:13;9.70;99.90
21092;DHT22;10704;42.678;23.288;2023-03-11T15:11:46;9.60;99.90
21092;DHT22;10704;42.678;23.288;2023-03-11T15:14:21;9.60;99.90
21092;DHT22;10704;42.678;23.288;2023-03-11T15:16:48;9.50;99.90
21092;DHT22;10704;42.678;23.288;2023-03-11T15:19:30;9.30;99.90
21092;DHT22;10704;42.678;23.288;2023-03-11T15:21:59;9.30;99.90
21092;DHT22;10704;42.678;23.288;2023-03-11T15:24:30;9.30;99.90
21092;DHT22;10704;42.678;23.288;2023-03-11T15:27:03;9.30;99.90
21092;DHT22;10704;42.678;23.288;2023-03-11T15:29:30;9.10;99.90
21092;DHT22;10704;42.678;23.288;2023-03-11T15:31:57;9.10;99.90
21092;DHT22;10704;42.678;23.288;2023-03-11T15:34:29;9.00;99.90
21092;DHT22;10704;42.678;23.288;2023-03-11T15:36:59;9.00;99.90
21092;DHT22;10704;42.678;23.288;2023-03-11T15:44:33;9.00;99.90
21092;DHT22;10704;42.678;23.288;2023-03-11T15:47:19;9.00;99.90
21092;DHT22;10704;42.678;23.288;2023-03-11T15:49:46;9.10;99.90
21092;DHT22;10704;42.678;23.288;2023-03-11T15:52:13;9.10;99.90
21092;DHT22;10704;42.678;23.288;2023-03-11T15:54:39;9.10;99.90
21092;DHT22;10704;42.678;23.288;2023-03-11T15:57:20;8.90;99.90
21092;DHT22;10704;42.678;23.288;2023-03-11T15:59:47;8.70;99.90
21092;DHT22;10704;42.678;23.288;2023-03-11T16:02:21;8.40;99.90
21092;DHT22;10704;42.678;23.288;2023-03-11T16:04:47;8.20;99.90
21092;DHT22;10704;42.678;23.288;2023-03-11T16:07:13;8.10;99.90
21092;DHT22;10704;42.678;23.288;2023-03-11T16:09:38;8.00;99.90
21092;DHT22;10704;42.678;23.288;2023-03-11T16:12:22;7.90;99.90
21092;DHT22;10704;42.678;23.288;2023-03-11T16:14:49;7.80;99.90
21092;DHT22;10704;42.678;23.288;2023-03-11T16:17:15;7.70;99.90
21092;DHT22;10704;42.678;23.288;2023-03-11T16:19:44;7.70;99.90
21092;DHT22;10704;42.678;23.288;2023-03-11T16:22:28;7.50;99.90
21092;DHT22;10704;42.678;23.288;2023-03-11T16:24:55;7.40;99.90
21092;DHT22;10704;42.678;23.288;2023-03-11T16:27:22;7.30;99.90
21092;DHT22;10704;42.678;23.288;2023-03-11T16:29:48;7.20;99.90
21092;DHT22;10704;42.678;23.288;2023-03-11T16:32:16;7.10;99.90
21092;DHT22;10704;42.678;23.288;2023-03-11T16:34:42;7.00;99.90
21092;DHT22;10704;42.678;23.288;2023-03-11T16:37:13;6.90;99.90
21092;DHT22;10704;42.678;23.288;2023-03-11T16:39:40;6.80;99.90
21092;DHT22;10704;42.678;23.288;2023-03-11T16:42:06;6.70;99.90
21092;DHT22;10704;42.678;23.288;2023-03-11T16:44:33;6.50;99.90
21092;DHT22;10704;42.678;23.288;2023-03-11T16:46:59;6.40;99.90
21092;DHT22;10704;42.678;23.288;2023-03-11T16:49:25;6.30;99.90
21092;DHT22;10704;42.678;23.288;2023-03-11T16:51:51;6.20;99.90
21092;DHT22;10704;42.678;23.288;2023-03-11T16:54:16;6.20;99.90
21092;DHT22;10704;42.678;23.288;2023-03-11T16:56:42;6.10;99.90
21092;DHT22;10704;42.678;23.288;2023-03-11T16:59:08;6.00;99.90
21092;DHT22;10704;42.678;23.288;2023-03-11T17:01:34;5.90;99.90
21092;DHT22;10704;42.678;23.288;2023-03-11T17:04:05;5.90;99.90
21092;DHT22;10704;42.678;23.288;2023-03-11T17:06:32;5.90;99.90
21092;DHT22;10704;42.678;23.288;2023-03-11T17:08:57;5.90;99.90
21092;DHT22;10704;42.678;23.288;2023-03-11T17:11:23;5.80;99.90
21092;DHT22;10704;42.678;23.288;2023-03-11T17:13:53;5.80;99.90
21092;DHT22;10704;42.678;23.288;2023-03-11T17:16:19;5.70;99.90
21092;DHT22;10704;42.678;23.288;2023-03-11T17:18:45;5.70;99.90
21092;DHT22;10704;42.678;23.288;2023-03-11T17:21:13;5.60;99.90
21092;DHT22;10704;42.678;23.288;2023-03-11T17:23:40;5.60;99.90
21092;DHT22;10704;42.678;23.288;2023-03-11T17:26:09;5.40;99.90
21092;DHT22;10704;42.678;23.288;2023-03-11T17:28:35;5.30;99.90